OEGT

Details ICAO OEGT (URY)
Name GURIAT
Region Saudi Arabia
Timezone Asia/Riyadh (UTC+3.0)
Plans Departing 2
Arriving 5
Stats Elevation 1,672 ft / 510 m (AMSL)
Location 31.411941° 37.279469°
Runways 1
Magnetic Variation 4.648° E
Sunrise 2018-05-23 02:31:50 UTC / 2018-05-23 05:31:50 Local
Sunset 2018-05-23 16:26:16 UTC / 2018-05-23 19:26:16 Local
Advertisement - Login to hide

Runways

ID Width Length Bearing (true) Bearing (mag) Surface Threshold Offset Overrun Length
10 147 ft / 45 m 9,994 ft / 3,046 m 106.27° 101.62° Asphalt 0 ft / 0 m 390 ft / 119 m
28 147 ft / 45 m 9,994 ft / 3,046 m 286.28° 281.63° Asphalt 0 ft / 0 m 390 ft / 119 m

Map

Weather


0- 5 10 15 20 25 30 35+ Temperature / ° C

Clouds and Precipitation
Forecast for 2018-05-23 00:00 UTC. Updated 2 hours ago

Ground ~20,000 ft ~40,000 ft Winds

METAR

OEGT 230100Z 00000KT CAVOK 24/00 Q1014 NOSIG

TAF

Not found

Frequencies

Unicom 122.80 MHz CTAF
Warning: Do not use this data for real-world aviation or navigation. No guarantee of current accuracy is given.